• Join FlightAware (Why Join?)
  • Login
  • US Flag 
03:15AM EDT


 

Airport Tracker/Info


-or-


 

Live Flight TrackerFlight Track Log ✈ CTL312 ✈ 24-Apr-2013 ✈ KBKL - KPTK

Flight Track Log - Related Links

Times and Time Zones

All times are in EDT time to prevent confusion due to time zone crossing. See the CTL312 flight status page for this flight to view local times or setup timezone preferences in your user account.

Time Position Orientation Groundspeed Altitude Reporting Facility
EDT Latitude Longitude Course Direction KTS MPH feet Rate Location/Type
09:45PM 41.5125 -81.6978 314° West 118 136 1,000  Level Cleveland Center
09:46PM 41.5208 -81.7092 314° West 138 159 1,400 840 Climbing Cleveland Center
09:47PM 41.5475 -81.7428 317° Northwest 139 160 2,200 720 Climbing Cleveland Center
09:48PM 41.5636 -81.7986 291° West 139 160 3,000 720 Climbing Cleveland Center
09:49PM 41.5819 -81.8433 299° West 138 159 3,800 660 Climbing Cleveland Center
09:50PM 41.6003 -81.8881 299° West 140 161 4,400 660 Climbing Cleveland Center
09:51PM 41.6142 -81.9331 292° West 140 161 5,100 660 Climbing Cleveland Center
09:52PM 41.6303 -81.9806 294° West 139 160 5,700 480 Climbing Cleveland Center
09:53PM 41.6444 -82.0308 291° West 143 165 6,100 60 Climbing Cleveland Center
09:54PM 41.6583 -82.0783 291° West 159 183 5,900 -120 Descending Cleveland Center
09:55PM 41.6722 -82.1314 289° West 157 181 5,900  Level Cleveland Center
09:56PM 41.6925 -82.1819 298° West 155 178 6,000  Climbing Cleveland Center
09:57PM 41.7125 -82.2356 297° West 150 173 5,900 -60 Descending Cleveland Center
09:58PM 41.7286 -82.2775 297° West 148 170 5,900  Level Cleveland Center
09:58PM 41.7364 -82.3111 287° West 149 171 5,900  Level Cleveland Center
09:59PM 41.7564 -82.3647 297° West 152 175 5,900  Level Cleveland Center
10:01PM 41.7761 -82.4292 292° West 152 175 5,900  Level Cleveland Center
10:01PM 41.7903 -82.4631 299° West 149 171 5,900  Level Cleveland Center
10:03PM 41.8122 -82.5278 294° West 150 173 5,900 -60 Level Cleveland Center
10:04PM 41.8300 -82.5783 295° West 151 174 5,800 -60 Descending Cleveland Center
10:05PM 41.8586 -82.6156 316° Northwest 166 191 5,800  Level Cleveland Center
10:05PM 41.8917 -82.6333 338° Northwest 164 189 5,800  Level Cleveland Center
10:06PM 41.9372 -82.6517 343° North 161 185 5,900  Climbing Cleveland Center
10:08PM 41.9825 -82.6781 337° Northwest 155 178 5,900  Level Cleveland Center
10:09PM 42.0258 -82.7019 338° Northwest 162 186 5,900  Level Cleveland Center
10:10PM 42.0714 -82.7231 341° North 160 184 5,900 -60 Level Cleveland Center
10:11PM 42.1125 -82.7469 337° Northwest 157 181 5,800  Descending Cleveland Center
10:12PM 42.1456 -82.7647 338° Northwest 155 178 6,000 60 Climbing Cleveland Center
10:13PM 42.1911 -82.7803 346° North 154 177 6,000  Level Cleveland Center
10:14PM 42.2242 -82.7983 338° Northwest 154 177 6,000  Level Cleveland Center
10:15PM 42.2653 -82.8278 332° Northwest 153 176 6,000  Level Cleveland Center
10:16PM 42.2978 -82.8656 319° Northwest 153 176 6,100 -360 Climbing Cleveland Center
10:17PM 42.3428 -82.9147 321° Northwest 165 190 5,200 -840 Descending Cleveland Center
10:18PM 42.3775 -82.9528 321° Northwest 175 201 4,300 -600 Descending Cleveland Center
10:19PM 42.4183 -82.9908 325° Northwest 163 188 4,100 -120 Descending Cleveland Center
10:20PM 42.4406 -83.0225 314° West 145 167 4,100 -120 Level Cleveland Center
10:21PM 42.4731 -83.0603 319° Northwest 151 174 3,900 -300 Descending Cleveland Center
10:22PM 42.5033 -83.1122 308° West 154 177 3,500 -240 Descending Cleveland Center
10:23PM 42.5214 -83.1439 308° West 148 170 3,500 -120 Level Cleveland Center
10:24PM 42.5475 -83.1872 309° West 146 168 3,300 -240 Descending Cleveland Center
10:25PM 42.5794 -83.2422 308° West 153 176 3,000 -300 Descending Cleveland Center
10:26PM 42.6014 -83.2856 305° West 145 167 2,700 -420 Descending Cleveland Center
10:27PM 42.6317 -83.3347 310° West 139 160 2,100 -420 Descending Cleveland Center
10:28PM 42.6514 -83.3722 306° West 132 152 1,900 -420 Descending Cleveland Center
10:29PM 42.6656 -83.3956 310° West 94 108 1,400 -600 Descending Cleveland Center
10:31PM 42.6500 -83.4167 304° West  Level FlightAware Approximate
10:38PM 42.6656 -83.4205 304° West  Level Estimated